createdAt,value
2018-02-22T05:27:10.624Z,1011.55
2018-02-22T05:28:10.321Z,1011.55
2018-02-22T05:29:10.306Z,1011.57
2018-02-22T05:30:10.277Z,1011.57
2018-02-22T05:31:10.254Z,1011.54
2018-02-22T05:32:10.241Z,1011.54
2018-02-22T05:33:10.272Z,1011.55
2018-02-22T05:34:10.222Z,1011.52
2018-02-22T05:35:10.179Z,1011.56
2018-02-22T05:36:10.167Z,1011.55
2018-02-22T05:37:10.145Z,1011.54
2018-02-22T05:38:10.126Z,1011.53
2018-02-22T05:39:10.109Z,1011.53
2018-02-22T05:40:10.083Z,1011.53
2018-02-22T05:41:10.072Z,1011.51
2018-02-22T05:42:10.054Z,1011.53
2018-02-22T05:43:10.025Z,1011.53
2018-02-22T05:44:10.030Z,1011.57
2018-02-22T05:45:09.971Z,1011.57
2018-02-22T05:46:09.995Z,1011.56
2018-02-22T05:47:09.931Z,1011.55
2018-02-22T05:48:09.916Z,1011.58
2018-02-22T05:49:09.896Z,1011.58
2018-02-22T05:50:09.907Z,1011.55
2018-02-22T05:51:09.890Z,1011.57
2018-02-22T05:52:09.858Z,1011.57
2018-02-22T05:53:09.814Z,1011.57
2018-02-22T05:54:09.791Z,1011.62
2018-02-22T05:55:09.766Z,1011.63
2018-02-22T05:56:09.755Z,1011.63
2018-02-22T05:57:09.749Z,1011.61
2018-02-22T05:58:09.719Z,1011.62
2018-02-22T05:59:09.693Z,1011.64
2018-02-22T06:00:09.677Z,1011.60
2018-02-22T06:01:09.646Z,1011.61
2018-02-22T06:02:09.697Z,1011.63
2018-02-22T06:03:09.611Z,1011.60
2018-02-22T06:04:09.589Z,1011.61
2018-02-22T06:05:09.578Z,1011.65
2018-02-22T06:06:09.563Z,1011.62
2018-02-22T06:07:09.544Z,1011.65
2018-02-22T06:08:09.545Z,1011.60
2018-02-22T06:09:09.488Z,1011.65
2018-02-22T06:10:09.467Z,1011.66
2018-02-22T06:11:09.465Z,1011.62
2018-02-22T06:12:09.428Z,1011.64
2018-02-22T06:13:09.464Z,1011.66
2018-02-22T06:14:09.389Z,1011.67
2018-02-22T06:15:09.384Z,1011.69
2018-02-22T06:16:10.309Z,1011.67
2018-02-22T06:17:09.327Z,1011.71
2018-02-22T06:18:10.307Z,1011.73
2018-02-22T06:19:09.294Z,1011.73
2018-02-22T06:20:09.276Z,1011.73
2018-02-22T06:21:09.274Z,1011.73
2018-02-22T06:22:09.233Z,1011.78
2018-02-22T06:23:09.217Z,1011.74
2018-02-22T06:24:09.216Z,1011.77
2018-02-22T06:25:09.179Z,1011.82
2018-02-22T06:26:09.146Z,1011.80
2018-02-22T06:27:09.130Z,1011.81
2018-02-22T06:28:09.102Z,1011.83
2018-02-22T06:29:09.111Z,1011.82
2018-02-22T06:30:09.049Z,1011.83
2018-02-22T06:31:09.054Z,1011.83
2018-02-22T06:32:09.038Z,1011.84
2018-02-22T06:33:09.011Z,1011.82
2018-02-22T06:34:08.985Z,1011.84
2018-02-22T06:35:08.965Z,1011.81
2018-02-22T06:36:08.995Z,1011.88
2018-02-22T06:37:08.916Z,1011.88
2018-02-22T06:38:08.902Z,1011.89
2018-02-22T06:39:08.871Z,1011.93
2018-02-22T06:40:08.871Z,1011.86
2018-02-22T06:41:08.840Z,1011.87
2018-02-22T06:42:08.850Z,1011.89
2018-02-22T06:43:08.788Z,1011.92
2018-02-22T06:44:08.776Z,1011.93
2018-02-22T06:45:08.777Z,1011.93
2018-02-22T06:46:08.731Z,1011.97
2018-02-22T06:47:08.804Z,1011.93
2018-02-22T06:48:08.682Z,1011.96
2018-02-22T06:49:08.671Z,1011.94
2018-02-22T06:50:08.671Z,1011.97
2018-02-22T06:51:08.672Z,1011.97
2018-02-22T06:52:08.628Z,1011.95
2018-02-22T06:53:08.604Z,1011.94
2018-02-22T06:54:08.569Z,1011.94
2018-02-22T06:55:08.571Z,1011.92
2018-02-22T06:56:08.530Z,1011.92
2018-02-22T06:57:08.540Z,1011.93
2018-02-22T06:58:08.487Z,1011.97
2018-02-22T06:59:08.466Z,1012.00
2018-02-22T07:00:08.449Z,1011.99
2018-02-22T07:01:08.483Z,1011.99
2018-02-22T07:02:08.410Z,1011.99
2018-02-22T07:03:08.384Z,1011.98
2018-02-22T07:04:08.371Z,1011.95
2018-02-22T07:05:08.348Z,1011.97
2018-02-22T07:06:08.327Z,1011.98
2018-02-22T07:07:08.324Z,1011.96
2018-02-22T07:08:08.284Z,1011.96
2018-02-22T07:09:08.260Z,1011.98
2018-02-22T07:10:08.245Z,1011.99
2018-02-22T07:11:08.282Z,1011.96
2018-02-22T07:12:08.198Z,1012.00
2018-02-22T07:13:08.174Z,1011.99
2018-02-22T07:14:08.160Z,1011.99
2018-02-22T07:15:08.135Z,1012.03
2018-02-22T07:16:08.122Z,1012.04
2018-02-22T07:17:08.136Z,1012.06
2018-02-22T07:18:08.082Z,1012.01
2018-02-22T07:19:08.055Z,1012.00
2018-02-22T07:20:08.052Z,1012.05
2018-02-22T07:21:08.009Z,1012.06
2018-02-22T07:22:08.056Z,1012.04
2018-02-22T07:23:16.652Z,1012.05
2018-02-22T07:24:07.962Z,1012.06
2018-02-22T07:25:07.932Z,1012.06
2018-02-22T07:26:07.920Z,1012.09
2018-02-22T07:27:07.888Z,1012.06
2018-02-22T07:28:07.879Z,1012.03
2018-02-22T07:29:07.854Z,1012.03
2018-02-22T07:30:07.847Z,1012.02
2018-02-22T07:31:07.820Z,1012.01
2018-02-22T07:32:07.795Z,1012.04
2018-02-22T07:33:07.828Z,1012.06
2018-02-22T07:34:07.773Z,1012.07
2018-02-22T07:35:07.744Z,1012.06
2018-02-22T07:36:07.714Z,1012.07
2018-02-22T07:37:07.693Z,1012.06
2018-02-22T07:38:07.672Z,1012.06
2018-02-22T07:39:07.690Z,1012.07
2018-02-22T07:40:07.644Z,1012.07
2018-02-22T07:41:07.617Z,1012.00
2018-02-22T07:42:07.598Z,1011.99
2018-02-22T07:43:07.617Z,1012.05
2018-02-22T07:44:07.562Z,1012.04
2018-02-22T07:45:07.527Z,1011.95
2018-02-22T07:46:07.517Z,1011.94
2018-02-22T07:47:07.490Z,1011.98
2018-02-22T07:48:07.504Z,1011.98
2018-02-22T07:49:07.456Z,1011.95
2018-02-22T07:50:07.434Z,1011.96
2018-02-22T07:51:07.419Z,1012.00
2018-02-22T07:52:07.418Z,1012.03
2018-02-22T07:53:07.807Z,1011.98
2018-02-22T07:54:07.350Z,1012.03
2018-02-22T07:55:07.389Z,1012.01
2018-02-22T07:56:07.314Z,1012.05
2018-02-22T07:57:07.286Z,1012.07
2018-02-22T07:58:07.266Z,1012.06
2018-02-22T07:59:07.262Z,1012.09
2018-02-22T08:00:07.279Z,1012.07
2018-02-22T08:01:07.263Z,1012.06
2018-02-22T08:02:07.186Z,1012.11
2018-02-22T08:03:07.162Z,1012.09
2018-02-22T08:04:07.157Z,1012.12
2018-02-22T08:05:07.128Z,1012.14
2018-02-22T08:06:07.799Z,1012.12
2018-02-22T08:07:08.840Z,1012.16
2018-02-22T08:08:07.108Z,1012.13
2018-02-22T08:09:07.167Z,1012.16
2018-02-22T08:10:08.526Z,1012.15
2018-02-22T08:17:26.857Z,1012.16
2018-02-22T08:18:26.767Z,1012.20
2018-02-22T08:19:26.317Z,1012.16
2018-02-22T08:20:26.546Z,1012.20
2018-02-22T08:21:28.137Z,1012.20
2018-02-22T08:22:26.221Z,1012.21
2018-02-22T08:23:26.200Z,1012.24
2018-02-22T08:28:31.123Z,1012.21
2018-02-22T08:29:31.148Z,1012.24
2018-02-22T08:30:31.069Z,1012.21
2018-02-22T08:31:31.050Z,1012.18
2018-02-22T08:41:59.070Z,1011.40
2018-02-22T08:42:31.950Z,1012.17
2018-02-22T08:43:32.649Z,1012.18
2018-02-22T08:44:31.938Z,1012.13
2018-02-22T08:45:31.902Z,1012.16
2018-02-22T08:46:31.980Z,1012.16
2018-02-22T08:47:32.430Z,1012.14
2018-02-22T08:48:31.817Z,1012.15
2018-02-22T08:49:31.777Z,1012.19
2018-02-22T08:50:31.768Z,1012.21
2018-02-22T08:51:31.810Z,1012.20
2018-02-22T08:52:31.720Z,1012.21
2018-02-22T08:53:31.708Z,1012.22
2018-02-22T08:54:31.700Z,1012.22
2018-02-22T08:55:31.654Z,1012.27
2018-02-22T08:56:31.661Z,1012.29
2018-02-22T08:57:31.665Z,1012.26
2018-02-22T08:58:31.604Z,1012.25
2018-02-22T08:59:31.581Z,1012.24
2018-02-22T09:00:31.567Z,1012.24
2018-02-22T09:01:31.538Z,1012.27
2018-02-22T09:02:31.575Z,1012.24
2018-02-22T09:03:31.595Z,1012.24
2018-02-22T09:04:31.482Z,1012.23
2018-02-22T09:05:31.476Z,1012.23
2018-02-22T09:06:31.445Z,1012.23
2018-02-22T09:07:32.233Z,1012.23
2018-02-22T09:08:31.391Z,1012.24
2018-02-22T09:09:32.413Z,1012.24
2018-02-22T09:10:32.337Z,1012.22
2018-02-22T09:11:31.413Z,1012.27
2018-02-22T09:12:31.448Z,1012.26
2018-02-22T09:13:33.126Z,1012.28
2018-02-22T09:14:31.411Z,1012.32
2018-02-22T09:15:32.291Z,1012.29
2018-02-22T09:16:31.355Z,1012.30
2018-02-22T09:17:31.339Z,1012.26
2018-02-22T09:18:31.285Z,1012.26
2018-02-22T09:19:31.250Z,1012.29
2018-02-22T09:20:31.231Z,1012.28
2018-02-22T09:21:31.166Z,1012.27
2018-02-22T09:22:31.150Z,1012.26
2018-02-22T09:23:31.351Z,1012.29
2018-02-22T09:24:31.765Z,1012.31
2018-02-22T09:25:31.092Z,1012.31
2018-02-22T09:26:31.105Z,1012.27
2018-02-22T09:27:31.036Z,1012.29
2018-02-22T09:28:31.755Z,1012.33
2018-02-22T09:29:30.996Z,1012.29
2018-02-22T09:30:31.066Z,1012.28
2018-02-22T09:31:31.042Z,1012.24
2018-02-22T09:32:32.209Z,1012.24
2018-02-22T09:33:31.357Z,1012.29
2018-02-22T09:34:30.904Z,1012.26
2018-02-22T09:35:30.888Z,1012.25
2018-02-22T09:36:30.890Z,1012.27
2018-02-22T09:37:30.916Z,1012.18
2018-02-22T09:38:30.834Z,1012.20
2018-02-22T09:39:30.801Z,1012.17
2018-02-22T09:40:32.697Z,1012.17
2018-02-22T09:41:30.771Z,1012.16
2018-02-22T09:42:30.794Z,1012.10
2018-02-22T09:43:30.765Z,1012.16
2018-02-22T09:44:30.771Z,1012.19
2018-02-22T09:45:30.724Z,1012.12
2018-02-22T09:46:30.757Z,1012.18
2018-02-22T09:47:30.663Z,1012.19
2018-02-22T09:48:30.674Z,1012.23
2018-02-22T09:49:30.614Z,1012.22
2018-02-22T09:50:30.595Z,1012.28
2018-02-22T09:51:30.585Z,1012.30
2018-02-22T09:52:30.561Z,1012.29
2018-02-22T09:53:30.596Z,1012.29
2018-02-22T09:54:30.527Z,1012.35
2018-02-22T09:55:30.502Z,1012.32
2018-02-22T09:56:30.487Z,1012.32
2018-02-22T09:57:30.491Z,1012.31
2018-02-22T09:58:30.462Z,1012.36
2018-02-22T09:59:30.502Z,1012.40
2018-02-22T10:00:30.410Z,1012.35
2018-02-22T10:01:30.417Z,1012.38
2018-02-22T10:02:30.387Z,1012.38
2018-02-22T10:03:30.360Z,1012.35
2018-02-22T10:04:30.352Z,1012.34
2018-02-22T10:05:30.340Z,1012.34
2018-02-22T10:06:30.346Z,1012.29
2018-02-22T10:07:30.303Z,1012.34
2018-02-22T10:08:30.284Z,1012.36
2018-02-22T10:09:30.265Z,1012.32
2018-02-22T10:10:30.237Z,1012.33
2018-02-22T10:11:30.283Z,1012.34
2018-02-22T10:12:30.206Z,1012.29
2018-02-22T10:13:30.183Z,1012.37
2018-02-22T10:14:30.160Z,1012.34
2018-02-22T10:15:30.150Z,1012.27
2018-02-22T10:16:30.141Z,1012.36
2018-02-22T10:17:30.133Z,1012.34
2018-02-22T10:18:30.085Z,1012.33
2018-02-22T10:19:30.077Z,1012.33
2018-02-22T10:20:30.065Z,1012.32
2018-02-22T10:21:30.044Z,1012.33
2018-02-22T10:22:30.035Z,1012.35
2018-02-22T10:23:30.009Z,1012.34
2018-02-22T10:24:29.994Z,1012.39
2018-02-22T10:25:29.980Z,1012.39
2018-02-22T10:26:29.951Z,1012.37
2018-02-22T10:27:29.975Z,1012.35
2018-02-22T10:28:29.962Z,1012.36
2018-02-22T10:29:29.909Z,1012.39
2018-02-22T10:30:29.882Z,1012.37
2018-02-22T10:31:29.867Z,1012.37
2018-02-22T10:32:29.857Z,1012.41
2018-02-22T10:33:29.851Z,1012.37
2018-02-22T10:34:29.830Z,1012.36
2018-02-22T10:35:29.856Z,1012.33
2018-02-22T10:36:29.781Z,1012.35
2018-02-22T10:37:29.770Z,1012.34
2018-02-22T10:38:29.754Z,1012.27
2018-02-22T10:39:29.747Z,1012.31
2018-02-22T10:40:29.727Z,1012.31
2018-02-22T10:41:29.734Z,1012.31
2018-02-22T10:42:29.752Z,1012.33
2018-02-22T10:43:29.676Z,1012.35
2018-02-22T10:44:29.657Z,1012.28
2018-02-22T10:45:29.639Z,1012.36
2018-02-22T10:46:29.624Z,1012.36
2018-02-22T10:47:29.603Z,1012.34
2018-02-22T10:48:29.631Z,1012.33
2018-02-22T10:49:29.574Z,1012.32
2018-02-22T10:50:29.564Z,1012.28
2018-02-22T10:51:29.595Z,1012.26
2018-02-22T10:52:29.537Z,1012.30
2018-02-22T10:53:29.519Z,1012.26
2018-02-22T10:54:29.502Z,1012.26
2018-02-22T10:55:29.481Z,1012.30
2018-02-22T10:56:29.470Z,1012.32
2018-02-22T10:57:29.465Z,1012.28
2018-02-22T10:58:29.435Z,1012.32
2018-02-22T10:59:29.416Z,1012.32
2018-02-22T11:00:29.466Z,1012.35
2018-02-22T11:01:29.392Z,1012.41
2018-02-22T11:02:29.362Z,1012.44
2018-02-22T11:03:29.364Z,1012.46
2018-02-22T11:04:29.347Z,1012.42
2018-02-22T11:05:29.331Z,1012.38
2018-02-22T11:06:29.377Z,1012.33
2018-02-22T11:07:29.311Z,1012.37
2018-02-22T11:08:29.271Z,1012.36
2018-02-22T11:09:29.258Z,1012.30
2018-02-22T11:10:29.293Z,1012.27
2018-02-22T11:11:29.229Z,1012.30
2018-02-22T11:12:29.234Z,1012.29
2018-02-22T11:13:29.204Z,1012.26
2018-02-22T11:14:29.194Z,1012.29
2018-02-22T11:15:29.185Z,1012.29
2018-02-22T11:16:29.160Z,1012.29
2018-02-22T11:17:29.198Z,1012.34
2018-02-22T11:18:29.127Z,1012.39
2018-02-22T11:19:29.126Z,1012.33
2018-02-22T11:20:29.104Z,1012.28
2018-02-22T11:21:29.096Z,1012.32
2018-02-22T11:22:29.072Z,1012.31
2018-02-22T11:23:29.080Z,1012.31
2018-02-22T11:24:29.040Z,1012.33
2018-02-22T11:25:29.024Z,1012.33
2018-02-22T11:26:29.018Z,1012.33
2018-02-22T11:27:29.046Z,1012.37
2018-02-22T11:28:28.967Z,1012.32
2018-02-22T11:29:28.955Z,1012.30
2018-02-22T11:30:28.936Z,1012.32
2018-02-22T11:31:28.920Z,1012.27
2018-02-22T11:32:28.911Z,1012.29
2018-02-22T11:33:28.934Z,1012.21
2018-02-22T11:34:28.876Z,1012.17
2018-02-22T11:35:28.871Z,1012.21
2018-02-22T11:36:28.843Z,1012.22
2018-02-22T11:37:28.840Z,1012.25
2018-02-22T11:38:28.863Z,1012.22
2018-02-22T11:39:28.794Z,1012.12
2018-02-22T11:40:28.790Z,1012.23
2018-02-22T11:41:28.763Z,1012.16
2018-02-22T11:42:28.744Z,1012.15
2018-02-22T11:43:28.733Z,1012.15
2018-02-22T11:44:28.720Z,1012.11
2018-02-22T11:45:28.691Z,1012.17
2018-02-22T11:46:28.682Z,1012.17
2018-02-22T11:47:28.657Z,1012.15
2018-02-22T11:48:28.638Z,1012.14
2018-02-22T11:49:28.715Z,1012.18
2018-02-22T11:50:28.614Z,1012.16
2018-02-22T11:51:28.598Z,1012.15
2018-02-22T11:52:28.585Z,1012.12
2018-02-22T11:53:28.560Z,1012.16
2018-02-22T11:54:28.551Z,1012.12
2018-02-22T11:55:28.568Z,1012.14
2018-02-22T11:56:28.517Z,1012.12
2018-02-22T11:57:28.499Z,1012.15
2018-02-22T11:58:28.546Z,1012.17
2018-02-22T11:59:28.474Z,1012.23
2018-02-22T12:00:28.455Z,1012.24
2018-02-22T12:01:28.490Z,1012.29
2018-02-22T12:02:28.425Z,1012.30
2018-02-22T12:03:28.399Z,1012.34
2018-02-22T12:04:28.388Z,1012.31
2018-02-22T12:05:28.376Z,1012.19
2018-02-22T12:06:28.358Z,1012.33
2018-02-22T12:07:28.383Z,1012.34
2018-02-22T12:08:28.330Z,1012.31
2018-02-22T12:09:28.318Z,1012.33
2018-02-22T12:10:28.311Z,1012.31
2018-02-22T12:11:28.299Z,1012.29
2018-02-22T12:12:28.339Z,1012.24
2018-02-22T12:13:28.275Z,1012.24
2018-02-22T12:14:28.268Z,1012.26
2018-02-22T12:15:28.256Z,1012.24
2018-02-22T12:16:28.239Z,1012.20
2018-02-22T12:17:28.285Z,1012.26
2018-02-22T12:18:28.221Z,1012.24
2018-02-22T12:19:28.217Z,1012.08
2018-02-22T12:20:28.188Z,1012.19
2018-02-22T12:21:28.187Z,1012.19
2018-02-22T12:22:28.184Z,1012.24
2018-02-22T12:23:28.181Z,1012.17
2018-02-22T12:24:28.221Z,1012.21
2018-02-22T12:25:28.150Z,1012.24
2018-02-22T12:26:28.129Z,1012.32
2018-02-22T12:27:28.124Z,1012.22
2018-02-22T12:28:28.115Z,1012.22
2018-02-22T12:29:28.102Z,1012.20
2018-02-22T12:30:28.162Z,1012.22
2018-02-22T12:31:28.091Z,1012.18
2018-02-22T12:32:28.101Z,1012.10
2018-02-22T12:33:28.066Z,1012.10
2018-02-22T12:34:28.056Z,1012.11
2018-02-22T12:35:28.049Z,1012.08
2018-02-22T12:36:28.103Z,1012.08
2018-02-22T12:37:28.014Z,1012.07
2018-02-22T12:38:28.017Z,1012.06
2018-02-22T12:39:28.007Z,1012.04
2018-02-22T12:40:27.991Z,1011.99
2018-02-22T12:41:27.984Z,1011.95
2018-02-22T12:42:28.029Z,1011.95
2018-02-22T12:43:27.972Z,1011.96
2018-02-22T12:44:27.957Z,1011.97
2018-02-22T12:45:27.961Z,1011.94
2018-02-22T12:46:27.931Z,1011.97
2018-02-22T12:47:27.925Z,1011.94
2018-02-22T12:48:27.943Z,1011.90
2018-02-22T12:49:28.016Z,1011.91
2018-02-22T12:50:27.896Z,1011.87
2018-02-22T12:51:27.872Z,1011.81
2018-02-22T12:52:27.872Z,1011.76
2018-02-22T12:53:27.858Z,1011.82
2018-02-22T12:54:27.843Z,1011.88
2018-02-22T12:55:27.841Z,1011.88
2018-02-22T12:56:27.824Z,1011.91
2018-02-22T12:57:27.819Z,1011.93
2018-02-22T12:58:27.811Z,1011.90
2018-02-22T12:59:27.802Z,1011.83
2018-02-22T13:00:27.805Z,1011.87
2018-02-22T13:01:27.767Z,1011.82
2018-02-22T13:02:27.774Z,1011.73
2018-02-22T13:03:27.746Z,1011.76
2018-02-22T13:04:27.770Z,1011.72
2018-02-22T13:05:27.740Z,1011.66
2018-02-22T13:06:27.716Z,1011.67
2018-02-22T13:07:28.155Z,1011.64
2018-02-22T13:08:27.692Z,1011.62
2018-02-22T13:09:27.691Z,1011.64
2018-02-22T13:10:27.680Z,1011.61
2018-02-22T13:11:27.677Z,1011.61
2018-02-22T13:12:27.684Z,1011.61
2018-02-22T13:13:27.680Z,1011.61
2018-02-22T13:14:27.674Z,1011.56
2018-02-22T13:15:27.620Z,1011.53
2018-02-22T13:16:27.614Z,1011.52
2018-02-22T13:17:27.611Z,1011.55
2018-02-22T13:18:27.664Z,1011.50
2018-02-22T13:19:27.576Z,1011.54
2018-02-22T13:20:27.591Z,1011.51
2018-02-22T13:21:27.568Z,1011.47
2018-02-22T13:22:27.579Z,1011.45
2018-02-22T13:23:27.526Z,1011.44
2018-02-22T13:24:27.579Z,1011.42
2018-02-22T13:25:27.519Z,1011.43
2018-02-22T13:26:27.507Z,1011.41
2018-02-22T13:27:27.484Z,1011.38
2018-02-22T13:28:27.477Z,1011.40
2018-02-22T13:29:27.469Z,1011.39
2018-02-22T13:30:27.464Z,1011.34
2018-02-22T13:31:27.454Z,1011.32
2018-02-22T13:32:27.434Z,1011.30
2018-02-22T13:33:27.420Z,1011.37
2018-02-22T13:34:27.612Z,1011.39
2018-02-22T13:35:27.405Z,1011.36
2018-02-22T13:36:27.383Z,1011.34
2018-02-22T13:37:27.367Z,1011.34
2018-02-22T13:38:27.351Z,1011.34
2018-02-22T13:39:27.349Z,1011.34
2018-02-22T13:40:27.355Z,1011.39
2018-02-22T13:41:28.158Z,1011.41
2018-02-22T13:42:27.319Z,1011.37
2018-02-22T13:43:27.283Z,1011.34
2018-02-22T13:44:27.305Z,1011.28
2018-02-22T13:45:27.281Z,1011.30
2018-02-22T13:46:27.255Z,1011.36
2018-02-22T13:47:27.255Z,1011.30
2018-02-22T13:48:27.239Z,1011.31
2018-02-22T13:49:27.249Z,1011.35
2018-02-22T13:50:27.263Z,1011.30
2018-02-22T13:51:27.242Z,1011.36
2018-02-22T13:52:27.226Z,1011.33
2018-02-22T13:53:27.188Z,1011.32
2018-02-22T13:54:27.164Z,1011.30
2018-02-22T13:55:27.158Z,1011.29
2018-02-22T13:56:27.209Z,1011.27
2018-02-22T13:57:27.131Z,1011.30
2018-02-22T13:58:27.142Z,1011.24
2018-02-22T13:59:27.109Z,1011.25
2018-02-22T14:00:27.086Z,1011.20
2018-02-22T14:01:27.075Z,1011.23
2018-02-22T14:02:27.092Z,1011.28
2018-02-22T14:03:27.064Z,1011.30
2018-02-22T14:04:27.037Z,1011.24
2018-02-22T14:05:27.037Z,1011.23
2018-02-22T14:06:27.045Z,1011.20
2018-02-22T14:07:27.081Z,1011.29
2018-02-22T14:08:26.997Z,1011.25
2018-02-22T14:09:26.976Z,1011.29
2018-02-22T14:10:26.983Z,1011.33
2018-02-22T14:11:26.968Z,1011.28
2018-02-22T14:12:26.963Z,1011.28
2018-02-22T14:13:26.973Z,1011.25
2018-02-22T14:14:26.927Z,1011.20
2018-02-22T14:15:26.925Z,1011.21
2018-02-22T14:16:26.905Z,1011.24
2018-02-22T14:17:26.927Z,1011.22
2018-02-22T14:18:26.941Z,1011.22
2018-02-22T14:19:26.906Z,1011.22
2018-02-22T14:20:26.881Z,1011.22
2018-02-22T14:21:26.874Z,1011.19
2018-02-22T14:22:26.859Z,1011.14
2018-02-22T14:23:26.899Z,1011.08
2018-02-22T14:24:26.834Z,1011.18
2018-02-22T14:25:26.821Z,1011.15
2018-02-22T14:26:26.829Z,1011.16
2018-02-22T14:27:26.814Z,1011.15
2018-02-22T14:28:26.799Z,1011.16
2018-02-22T14:29:26.825Z,1011.18
2018-02-22T14:30:26.791Z,1011.18
2018-02-22T14:31:26.796Z,1011.14
2018-02-22T14:32:26.800Z,1011.10
2018-02-22T14:33:26.802Z,1011.14
2018-02-22T14:34:26.748Z,1011.11
2018-02-22T14:35:26.751Z,1011.10
2018-02-22T14:36:26.733Z,1011.08
2018-02-22T14:37:26.735Z,1011.07
2018-02-22T14:38:26.786Z,1011.08
2018-02-22T14:39:26.720Z,1011.03
2018-02-22T14:40:26.706Z,1011.10
2018-02-22T14:41:26.700Z,1011.09
2018-02-22T14:42:26.697Z,1011.08
2018-02-22T14:43:26.688Z,1011.08
2018-02-22T14:44:26.690Z,1011.14
2018-02-22T14:45:26.667Z,1011.08
2018-02-22T14:46:26.653Z,1011.08
2018-02-22T14:47:26.644Z,1011.06
2018-02-22T14:48:26.704Z,1011.05
2018-02-22T14:49:26.649Z,1011.02
2018-02-22T14:50:26.647Z,1011.00
2018-02-22T14:51:26.626Z,1011.01
2018-02-22T14:52:26.667Z,1010.96
2018-02-22T14:53:26.636Z,1010.98
2018-02-22T14:54:26.623Z,1011.04
2018-02-22T14:55:26.617Z,1011.03
2018-02-22T14:56:26.634Z,1011.03
2018-02-22T14:57:26.595Z,1010.99
2018-02-22T14:58:26.589Z,1010.97
2018-02-22T14:59:26.602Z,1010.93
2018-02-22T15:00:26.632Z,1010.92
2018-02-22T15:01:26.617Z,1010.96
2018-02-22T15:02:26.574Z,1010.97
2018-02-22T15:03:26.564Z,1010.94
2018-02-22T15:04:26.554Z,1010.97
2018-02-22T15:05:26.561Z,1010.96
2018-02-22T15:06:26.576Z,1010.93
2018-02-22T15:07:26.538Z,1010.95
2018-02-22T15:08:26.526Z,1010.92
2018-02-22T15:09:26.513Z,1010.96
2018-02-22T15:10:26.515Z,1010.96
2018-02-22T15:11:26.520Z,1010.96
2018-02-22T15:12:26.510Z,1010.94
2018-02-22T15:13:26.521Z,1010.92
2018-02-22T15:14:26.523Z,1010.89
2018-02-22T15:15:26.493Z,1010.90
2018-02-22T15:16:26.563Z,1010.93
2018-02-22T15:17:26.467Z,1010.91
2018-02-22T15:18:26.480Z,1010.91
2018-02-22T15:19:27.206Z,1010.88
2018-02-22T15:20:26.452Z,1010.92
2018-02-22T15:21:26.454Z,1010.93
2018-02-22T15:22:26.481Z,1010.95
2018-02-22T15:23:26.472Z,1010.97
2018-02-22T15:24:26.619Z,1010.95
2018-02-22T15:25:26.413Z,1010.93
2018-02-22T15:26:26.428Z,1010.93
2018-02-22T15:27:26.495Z,1010.92
2018-02-22T15:28:26.400Z,1010.93
2018-02-22T15:29:26.396Z,1010.91
2018-02-22T15:30:26.384Z,1010.95
2018-02-22T15:31:26.384Z,1010.91
2018-02-22T15:32:26.361Z,1010.86
2018-02-22T15:33:26.392Z,1010.86
2018-02-22T15:34:26.362Z,1010.88
2018-02-22T15:35:26.362Z,1010.88
2018-02-22T15:36:26.349Z,1010.86
2018-02-22T15:37:26.320Z,1010.87
2018-02-22T15:38:26.381Z,1010.84
2018-02-22T15:39:26.318Z,1010.82
2018-02-22T15:40:26.331Z,1010.79
2018-02-22T15:41:26.304Z,1010.84
2018-02-22T15:42:26.288Z,1010.91
2018-02-22T15:43:26.318Z,1010.88
2018-02-22T15:44:26.295Z,1010.84
2018-02-22T15:45:26.259Z,1010.80
2018-02-22T15:46:26.263Z,1010.84
2018-02-22T15:47:26.305Z,1010.84
2018-02-22T15:48:26.245Z,1010.84
2018-02-22T15:49:26.232Z,1010.84
2018-02-22T15:50:26.223Z,1010.85
2018-02-22T15:51:26.203Z,1010.80
2018-02-22T15:52:26.200Z,1010.77
2018-02-22T15:53:26.239Z,1010.81
2018-02-22T15:54:26.179Z,1010.76
2018-02-22T15:55:26.171Z,1010.74
2018-02-22T15:56:26.177Z,1010.72
2018-02-22T15:57:26.153Z,1010.76
2018-02-22T15:58:26.141Z,1010.76
2018-02-22T15:59:26.188Z,1010.72
2018-02-22T16:00:26.114Z,1010.68
2018-02-22T16:01:26.114Z,1010.73
2018-02-22T16:02:26.096Z,1010.70
2018-02-22T16:03:26.080Z,1010.75
2018-02-22T16:04:26.080Z,1010.76
2018-02-22T16:05:26.219Z,1010.77
2018-02-22T16:06:26.055Z,1010.74
2018-02-22T16:07:26.033Z,1010.73
2018-02-22T16:08:26.033Z,1010.71
2018-02-22T16:09:26.010Z,1010.70
2018-02-22T16:10:26.059Z,1010.74
2018-02-22T16:11:25.985Z,1010.74
2018-02-22T16:12:25.976Z,1010.72
2018-02-22T16:13:25.970Z,1010.75
2018-02-22T16:14:25.956Z,1010.74
2018-02-22T16:15:25.930Z,1010.76
2018-02-22T16:16:25.933Z,1010.73
2018-02-22T16:17:25.987Z,1010.74
2018-02-22T16:18:25.893Z,1010.73
2018-02-22T16:19:25.885Z,1010.72
2018-02-22T16:20:25.877Z,1010.72
2018-02-22T16:21:25.856Z,1010.75
2018-02-22T16:22:25.854Z,1010.70
2018-02-22T16:23:26.712Z,1010.66
2018-02-22T16:24:25.816Z,1010.68
2018-02-22T16:25:25.807Z,1010.68
2018-02-22T16:26:25.790Z,1010.68
2018-02-22T16:27:25.771Z,1010.65
2018-02-22T16:28:25.760Z,1010.67
2018-02-22T16:29:25.744Z,1010.69
2018-02-22T16:30:25.730Z,1010.70
2018-02-22T16:31:25.752Z,1010.66
2018-02-22T16:32:25.712Z,1010.63
2018-02-22T16:33:25.725Z,1010.67
2018-02-22T16:34:25.673Z,1010.66
2018-02-22T16:35:25.658Z,1010.65
2018-02-22T16:36:25.646Z,1010.62
2018-02-22T16:37:25.654Z,1010.64
2018-02-22T16:38:25.611Z,1010.59
2018-02-22T16:39:25.600Z,1010.63
2018-02-22T16:40:25.582Z,1010.63
2018-02-22T16:41:25.605Z,1010.59
2018-02-22T16:42:25.603Z,1010.59
2018-02-22T16:43:25.535Z,1010.57
2018-02-22T16:44:25.525Z,1010.53
2018-02-22T16:45:25.504Z,1010.53
2018-02-22T16:46:25.508Z,1010.59
2018-02-22T16:47:25.478Z,1010.58
2018-02-22T16:48:25.474Z,1010.54
2018-02-22T16:49:25.445Z,1010.57
2018-02-22T16:50:25.434Z,1010.60
2018-02-22T16:51:25.487Z,1010.55
2018-02-22T16:52:25.395Z,1010.50
2018-02-22T16:53:25.392Z,1010.53
2018-02-22T16:54:25.446Z,1010.57
2018-02-22T16:55:25.360Z,1010.56
2018-02-22T16:56:25.339Z,1010.56
2018-02-22T16:57:25.332Z,1010.59
2018-02-22T16:58:25.308Z,1010.60
2018-02-22T16:59:25.330Z,1010.55
2018-02-22T17:00:25.280Z,1010.58
2018-02-22T17:01:25.266Z,1010.57
2018-02-22T17:02:25.244Z,1010.60
2018-02-22T17:03:25.232Z,1010.59
2018-02-22T17:04:25.244Z,1010.54
2018-02-22T17:05:25.204Z,1010.60
2018-02-22T17:06:25.184Z,1010.55
2018-02-22T17:07:25.162Z,1010.56
2018-02-22T17:08:25.148Z,1010.58
2018-02-22T17:09:25.193Z,1010.54
2018-02-22T17:10:25.114Z,1010.52
2018-02-22T17:11:25.157Z,1010.52
2018-02-22T17:12:25.079Z,1010.53
2018-02-22T17:13:25.064Z,1010.53
2018-02-22T17:14:25.054Z,1010.52
2018-02-22T17:15:25.025Z,1010.52
2018-02-22T17:16:25.019Z,1010.54
2018-02-22T17:17:25.020Z,1010.57
2018-02-22T17:18:25.019Z,1010.58
2018-02-22T17:19:24.985Z,1010.54
2018-02-22T17:20:24.958Z,1010.59
2018-02-22T17:21:24.943Z,1010.56
2018-02-22T17:22:24.932Z,1010.58
2018-02-22T17:23:24.967Z,1010.56
2018-02-22T17:24:24.886Z,1010.59
2018-02-22T17:25:24.914Z,1010.57
2018-02-22T17:26:24.866Z,1010.60
2018-02-22T17:27:24.884Z,1010.59
2018-02-22T17:28:24.816Z,1010.58
2018-02-22T17:29:24.797Z,1010.54
2018-02-22T17:30:24.794Z,1010.57
2018-02-22T17:31:24.771Z,1010.55
2018-02-22T17:32:24.755Z,1010.55
2018-02-22T17:33:24.768Z,1010.58
2018-02-22T17:34:24.727Z,1010.58
2018-02-22T17:35:24.701Z,1010.58
2018-02-22T17:36:24.695Z,1010.59
2018-02-22T17:37:24.674Z,1010.57
2018-02-22T17:38:24.720Z,1010.55
2018-02-22T17:39:24.641Z,1010.54
2018-02-22T17:40:24.625Z,1010.58
2018-02-22T17:41:24.611Z,1010.58
2018-02-22T17:42:24.581Z,1010.54
2018-02-22T17:43:24.573Z,1010.54
2018-02-22T17:44:24.715Z,1010.53
2018-02-22T17:45:24.543Z,1010.54
2018-02-22T17:46:24.525Z,1010.53
2018-02-22T17:47:24.515Z,1010.51
2018-02-22T17:48:24.683Z,1010.54
2018-02-22T17:49:24.469Z,1010.51
2018-02-22T17:50:24.460Z,1010.55
2018-02-22T17:51:24.443Z,1010.49